CW1773 Weather Reports


Display with metric or nautical units.
time (UTC)temp
F
wind
direction
speed
MPH
gust
MPH
rain 1hr
in
rain 24hr
in
rain mn
in
humidity
%
barometer
mb
20210619151008 78 220 5.0 7.0 0.00 0.24 0.23 67 1002.8
20210619150007 77 219 1.0 6.0 0.00 0.24 0.23 68 1002.8
20210619145008 77 215 1.0 5.0 0.00 0.24 0.23 68 1003.0
20210619144007 77 267 1.0 5.0 0.00 0.24 0.23 69 1003.1
20210619143007 76 193 1.0 3.0 0.00 0.24 0.23 70 1003.1
20210619142007 75 203 2.0 3.0 0.00 0.24 0.23 73 1003.3
20210619141008 75 248 3.0 6.0 0.00 0.24 0.23 75 1003.6
20210619140007 75 192 6.0 7.0 0.00 0.24 0.23 73 1003.6
20210619135007 75 344 1.0 2.0 0.00 0.24 0.23 76 1003.5
20210619134007 74 215 6.0 6.0 0.00 0.24 0.23 78 1003.7
20210619133007 73 258 0.0 1.0 0.00 0.24 0.23 80 1003.7
20210619132008 72 268 3.0 3.0 0.00 0.24 0.23 83 1003.6
20210619131008 71 298 0.0 0.0 0.00 0.24 0.23 87 1003.5
20210619130007 69 258 0.0 2.0 0.00 0.24 0.23 92 1003.5
20210619125008 68 215 0.0 1.0 0.00 0.24 0.23 97 1003.5
20210619124007 67 330 1.0 1.0 0.00 0.24 0.23 100 1003.7
20210619123007 67 312 0.0 1.0 0.00 0.24 0.23 100 1003.7
20210619122007 67 253 1.0 2.0 0.00 0.24 0.23 100 1003.7
20210619121007 65 241 0.0 0.0 0.00 0.24 0.23 100 1003.7
20210619120006 64 237 0.0 0.0 0.00 0.24 0.23 100 1003.7
20210619115006 63 246 0.0 0.0 0.00 0.24 0.23 100 1003.7
20210619114007 63 241 0.0 1.0 0.00 0.24 0.23 100 1003.7
20210619113007 62 241 0.0 0.0 0.00 0.24 0.23 100 1003.6
20210619112006 62 241 0.0 0.0 0.00 0.24 0.23 100 1003.6
20210619111006 62 241 0.0 0.0 0.02 0.24 0.23 100 1003.4
20210619110007 62 241 0.0 0.0 0.04 0.24 0.23 100 1003.4
20210619105006 62 241 0.0 0.0 0.08 0.24 0.23 100 1003.7
20210619104007 62 241 0.0 0.0 0.18 0.24 0.23 100 1003.7
20210619103006 62 241 0.0 0.0 0.22 0.24 0.23 100 1003.7
20210619102006 62 227 0.0 2.0 0.23 0.24 0.23 100 1004.1
20210619101006 62 227 0.0 0.0 0.21 0.22 0.21 100 1004.0
20210619100007 62 227 0.0 0.0 0.19 0.20 0.19 100 1004.0
20210619095007 62 227 0.0 0.0 0.15 0.16 0.15 100 1004.3
20210619094007 62 229 0.0 0.0 0.05 0.06 0.05 100 1003.7
20210619093007 62 227 0.0 1.0 0.01 0.02 0.01 100 1003.7
20210619092006 62 226 0.0 0.0 0.00 0.01 0.00 100 1003.3
20210619091006 61 234 0.0 0.0 0.00 0.01 0.00 100 1003.1
20210619090008 61 234 0.0 0.0 0.00 0.01 0.00 100 1003.1
20210619085006 61 234 0.0 0.0 0.00 0.01 0.00 100 1003.1
20210619084006 61 234 1.0 2.0 0.00 0.01 0.00 100 1003.0
20210619083007 61 239 0.0 0.0 0.00 0.01 0.00 100 1003.0
20210619082006 61 239 0.0 0.0 0.00 0.01 0.00 100 1003.0
20210619081007 61 239 0.0 0.0 0.00 0.01 0.00 100 1003.0
20210619080006 61 239 0.0 0.0 0.00 0.01 0.00 100 1003.0
20210619075008 61 239 0.0 0.0 0.00 0.01 0.00 100 1003.0
20210619074006 61 239 0.0 0.0 0.00 0.01 0.00 100 1003.0
20210619073006 62 239 0.0 0.0 0.00 0.01 0.00 100 1003.1
20210619072006 62 239 0.0 0.0 0.00 0.01 0.00 100 1003.7
20210619071007 62 239 0.0 0.0 0.00 0.01 0.00 100 1004.0
20210619070006 62 239 0.0 0.0 0.00 0.01 0.00 99 1004.0
20210619065006 62 239 0.0 0.0 0.00 0.01 0.00 100 1004.1
20210619064006 63 239 0.0 0.0 0.00 0.01 0.00 100 1004.4
20210619063006 63 239 0.0 0.0 0.00 0.01 0.00 100 1004.4
20210619062006 63 239 0.0 0.0 0.00 0.01 0.00 100 1004.8
20210619061006 63 239 0.0 0.0 0.00 0.01 0.00 100 1004.8
20210619060006 63 239 0.0 0.0 0.00 0.01 0.00 100 1004.8
20210619055006 63 239 0.0 0.0 0.00 0.01 0.00 99 1004.8
20210619054006 63 239 0.0 0.0 0.00 0.01 0.00 99 1004.9
20210619053006 63 239 0.0 0.0 0.00 0.01 0.00 99 1004.9
20210619052005 63 239 0.0 0.0 0.00 0.01 0.00 99 1005.0
20210619051006 63 239 1.0 1.0 0.00 0.01 0.00 99 1005.1
20210619050006 63 263 0.0 0.0 0.00 0.01 0.00 99 1005.1
20210619045006 63 263 0.0 0.0 0.00 0.01 0.00 98 1005.3
20210619044005 63 263 0.0 0.0 0.00 0.01 0.00 98 1005.5
20210619043006 63 263 0.0 0.0 0.00 0.01 0.00 98 1005.5
20210619042006 63 263 0.0 0.0 0.00 0.01 0.00 98 1005.8
20210619041006 63 263 0.0 0.0 0.00 0.01 0.00 97 1006.0
20210619040005 63 263 0.0 0.0 0.00 0.01 0.00 97 1006.0
20210619035005 63 263 0.0 0.0 0.01 0.01 0.01 97 1006.1
20210619034005 63 263 0.0 0.0 0.01 0.01 0.01 96 1006.2
20210619033005 63 263 0.0 0.0 0.01 0.01 0.01 96 1006.2
20210619032005 64 263 0.0 0.0 0.01 0.01 0.01 95 1006.5
20210619031006 64 263 0.0 0.0 0.01 0.01 0.01 94 1006.8
20210619030005 64 263 0.0 0.0 0.01 0.01 0.01 94 1006.8
20210619025005 64 263 0.0 0.0 0.00 0.00 0.00 93 1006.8
20210619024006 64 263 0.0 0.0 0.00 0.00 0.00 92 1006.9
20210619023005 64 263 0.0 0.0 0.00 0.00 0.00 92 1006.9
20210619022006 65 263 0.0 0.0 0.00 0.00 0.00 91 1007.1
20210619021006 65 263 0.0 0.0 0.00 0.00 0.00 90 1007.5
20210619020006 65 263 0.0 0.0 0.00 0.00 0.00 89 1007.5
20210619015005 65 263 0.0 0.0 0.00 0.00 0.00 86 1007.2
20210619014005 66 263 0.0 0.0 0.00 0.00 0.00 85 1007.0
20210619013006 66 261 0.0 0.0 0.00 0.00 0.00 83 1007.0
20210619012005 67 261 0.0 0.0 0.00 0.00 0.00 80 1007.1
20210619011007 68 261 0.0 0.0 0.00 0.00 0.00 77 1007.0
20210619010005 68 261 0.0 0.0 0.00 0.00 0.00 74 1007.0
20210619005005 69 261 0.0 0.0 0.00 0.00 0.00 73 1006.9
20210619004004 69 261 0.0 0.0 0.00 0.00 0.00 72 1006.8
20210619003005 70 261 0.0 0.0 0.00 0.00 0.00 72 1006.8
20210619002005 70 261 0.0 0.0 0.00 0.00 0.00 71 1006.9
20210619001005 71 261 0.0 0.0 0.00 0.00 0.00 70 1007.1
20210619000004 72 261 0.0 0.0 0.00 0.00 0.00 69 1007.2
20210618235004 72 261 0.0 0.0 0.00 0.00 0.00 68 1007.0
20210618234004 73 261 0.0 0.0 0.00 0.00 0.00 65 1006.9
20210618233005 73 258 0.0 0.0 0.00 0.00 0.00 61 1006.9
20210618232004 74 258 0.0 0.0 0.00 0.00 0.00 62 1007.0
20210618231005 74 258 0.0 0.0 0.00 0.00 0.00 61 1007.0
20210618230006 75 258 0.0 0.0 0.00 0.00 0.00 60 1007.0
20210618225004 76 258 0.0 0.0 0.00 0.00 0.00 56 1007.0
20210618224005 77 258 0.0 0.0 0.00 0.00 0.00 54 1007.0
20210618223004 77 258 0.0 0.0 0.00 0.00 0.00 52 1007.0
20210618222005 78 203 0.0 0.0 0.00 0.00 0.00 46 1007.3
20210618221004 78 203 0.0 0.0 0.00 0.00 0.00 43 1007.6
20210618220004 78 281 1.0 3.0 0.00 0.00 0.00 42 1007.6
20210618215004 78 272 0.0 0.0 0.00 0.00 0.00 43 1007.8
20210618214005 78 241 0.0 0.0 0.00 0.00 0.00 41 1007.9
20210618213004 78 244 1.0 2.0 0.00 0.00 0.00 40 1007.9
20210618212005 78 224 4.0 6.0 0.00 0.00 0.00 39 1008.2
20210618211004 79 202 0.0 3.0 0.00 0.00 0.00 38 1008.4
20210618210005 78 243 3.0 6.0 0.00 0.00 0.00 35 1008.4
20210618205004 78 215 2.0 2.0 0.00 0.00 0.00 36 1008.5
20210618204004 77 240 1.0 5.0 0.00 0.00 0.00 36 1008.8
20210618203004 77 289 1.0 6.0 0.00 0.00 0.00 36 1008.8
20210618202005 78 219 0.0 3.0 0.00 0.00 0.00 37 1008.7
20210618201004 78 248 1.0 2.0 0.00 0.00 0.00 40 1008.7
20210618200005 78 263 3.0 5.0 0.00 0.00 0.00 40 1008.7
20210618195004 78 203 6.0 6.0 0.00 0.00 0.00 41 1008.9
20210618194005 78 200 7.0 7.0 0.00 0.00 0.00 42 1009.0
20210618193005 77 215 0.0 1.0 0.00 0.00 0.00 46 1009.1
20210618192004 77 230 3.0 6.0 0.00 0.00 0.00 40 1009.1
20210618191005 77 315 1.0 7.0 0.00 0.00 0.00 39 1009.2
20210618190004 77 212 5.0 10.0 0.00 0.00 0.00 42 1009.2
20210618185004 77 253 1.0 7.0 0.00 0.00 0.00 42 1009.2
20210618184004 77 257 1.0 7.0 0.00 0.00 0.00 38 1009.5
20210618183004 77 339 2.0 3.0 0.00 0.00 0.00 37 1009.5
20210618182005 78 224 0.0 5.0 0.00 0.00 0.00 34 1009.7
20210618181004 78 178 2.0 3.0 0.00 0.00 0.00 38 1009.9
20210618180004 77 208 1.0 5.0 0.00 0.00 0.00 37 1009.8
20210618175004 76 291 0.0 6.0 0.00 0.00 0.00 38 1010.0
20210618174004 77 288 0.0 4.0 0.00 0.00 0.00 39 1010.0
20210618173005 78 328 0.0 2.0 0.00 0.00 0.00 37 1010.0
20210618172004 78 237 0.0 6.0 0.00 0.00 0.00 37 1010.1
20210618171004 78 195 1.0 13.0 0.00 0.00 0.00 34 1010.4
20210618170004 77 185 0.0 3.0 0.00 0.00 0.00 35 1010.4
20210618165004 77 161 2.0 3.0 0.00 0.00 0.00 33 1010.6
20210618164004 77 243 1.0 2.0 0.00 0.00 0.00 34 1010.8
20210618163004 77 240 2.0 12.0 0.00 0.00 0.00 34 1010.8
20210618162004 77 174 5.0 7.0 0.00 0.00 0.00 36 1011.0
20210618161004 77 268 3.0 7.0 0.00 0.00 0.00 33 1011.1
20210618160004 77 256 3.0 7.0 0.00 0.00 0.00 29 1011.1
20210618155004 76 244 0.0 10.0 0.00 0.00 0.00 33 1011.3
20210618154003 75 244 1.0 7.0 0.00 0.00 0.00 36 1011.2
20210618153004 75 227 5.0 6.0 0.00 0.00 0.00 39 1011.2
20210618152005 75 205 5.0 5.0 0.00 0.00 0.00 43 1011.5